Terminal Aerodrome Forecast
Issued by NWS

Home | Current Version | Previous Version | Text Only | Print | Product List | Glossary On
Versions: 1 2 3 4 5 6 7 8 9 10 11 12
000
FTUS45 KRIW 261723
TAFRKS
TAF
KRKS 261723Z 2618/2718 18006KT P6SM FEW100
     FM262100 24013KT P6SM SCT100
     FM270200 19009KT P6SM SCT100 BKN150
     FM271300 24014G20KT P6SM BKN150=

USA.gov is the U.S. government's official web portal to all federal, state and local government web resources and services.